Time;durP1;ratioP1;P1;durP2;ratioP2;P2;SDS_P1;SDS_P2;PMS_P1;PMS_P2;Temp;Humidity;BMP_temperature;BMP_pressure;BME280_temperature;BME280_humidity;BME280_pressure;Samples;Min_cycle;Max_cycle;Signal;HPM_P1;HPM_P2
2022/04/26 03:36:38;;;;;;;1.60;1.08;;;20.30;53.00;;;;;;4992280;28;20043;-55
2022/04/26 03:39:04;;;;;;;2.17;1.20;;;20.30;53.00;;;;;;4993344;28;20085;-54
2022/04/26 03:41:30;;;;;;;2.53;1.58;;;20.30;53.00;;;;;;4996832;28;20078;-54
2022/04/26 03:43:55;;;;;;;1.83;1.15;;;20.30;53.00;;;;;;4995802;28;20078;-54
2022/04/26 03:46:21;;;;;;;2.55;1.05;;;20.30;53.00;;;;;;4996709;28;20038;-54
2022/04/26 03:48:46;;;;;;;2.63;1.23;;;20.30;52.90;;;;;;4995855;28;20393;-54
2022/04/26 03:51:12;;;;;;;1.83;1.20;;;20.40;53.00;;;;;;4995888;28;20053;-54
2022/04/26 03:53:39;;;;;;;2.35;1.25;;;20.40;52.90;;;;;;4996604;28;20089;-54
2022/04/26 03:56:05;;;;;;;2.78;1.10;;;20.40;52.90;;;;;;4996129;28;20050;-54
2022/04/26 03:58:30;;;;;;;2.85;1.40;;;20.40;52.90;;;;;;4995794;28;20049;-54
2022/04/26 04:00:56;;;;;;;2.75;1.30;;;20.40;52.90;;;;;;4996193;28;20378;-54
2022/04/26 04:03:22;;;;;;;3.58;1.35;;;20.40;52.90;;;;;;4994017;28;20133;-55
2022/04/26 04:05:47;;;;;;;2.67;1.40;;;20.40;52.90;;;;;;4995467;28;20046;-54
2022/04/26 04:08:13;;;;;;;2.38;1.20;;;20.40;52.90;;;;;;4995734;28;20049;-54
2022/04/26 04:10:38;;;;;;;3.63;1.40;;;20.40;52.90;;;;;;4995291;28;20034;-54
2022/04/26 04:13:04;;;;;;;2.63;1.00;;;20.40;52.80;;;;;;4996076;28;20508;-54
2022/04/26 04:15:29;;;;;;;3.47;1.30;;;20.40;52.80;;;;;;4996291;28;20192;-54
2022/04/26 04:17:55;;;;;;;1.95;1.10;;;20.40;52.90;;;;;;4994761;28;20137;-54
2022/04/26 04:20:21;;;;;;;3.65;1.48;;;20.40;53.50;;;;;;4996088;28;20134;-54
2022/04/26 04:22:48;;;;;;;2.20;1.10;;;20.40;52.90;;;;;;4995799;28;20038;-54
2022/04/26 04:25:15;;;;;;;2.92;1.38;;;20.40;52.90;;;;;;4995064;28;20070;-54
2022/04/26 04:27:41;;;;;;;2.38;1.30;;;20.40;52.90;;;;;;4995771;28;20496;-54
2022/04/26 04:30:08;;;;;;;3.20;1.40;;;20.50;52.90;;;;;;4995842;28;20501;-54
2022/04/26 04:32:33;;;;;;;3.33;1.42;;;20.40;52.80;;;;;;4994620;28;20093;-54
2022/04/26 04:34:59;;;;;;;3.05;1.45;;;20.40;52.80;;;;;;4995264;28;20528;-54
2022/04/26 04:37:24;;;;;;;2.42;1.17;;;20.40;52.80;;;;;;4995631;28;20049;-54
2022/04/26 04:39:50;;;;;;;4.32;1.40;;;20.50;52.90;;;;;;4994355;28;20061;-54
2022/04/26 04:42:15;;;;;;;3.22;1.40;;;20.50;52.90;;;;;;4995505;28;20042;-54
2022/04/26 04:44:41;;;;;;;2.72;1.30;;;20.40;52.80;;;;;;4995401;28;20034;-54
2022/04/26 04:47:07;;;;;;;2.92;1.20;;;20.50;52.90;;;;;;4994764;28;20093;-55
2022/04/26 04:49:32;;;;;;;2.65;1.23;;;20.50;52.90;;;;;;4995055;28;20100;-54
2022/04/26 04:51:58;;;;;;;2.20;1.13;;;20.50;53.00;;;;;;4994962;28;20089;-54
2022/04/26 04:54:23;;;;;;;2.25;1.30;;;20.50;52.90;;;;;;4994759;28;20042;-54
2022/04/26 04:56:49;;;;;;;3.58;1.10;;;20.50;52.90;;;;;;4994927;28;20046;-54
2022/04/26 04:59:16;;;;;;;2.55;1.25;;;20.50;52.90;;;;;;4995291;28;20050;-54
2022/04/26 05:01:42;;;;;;;3.03;1.27;;;20.50;52.90;;;;;;4993966;28;20042;-55
2022/04/26 05:04:08;;;;;;;2.28;1.10;;;20.50;52.90;;;;;;4995132;28;20060;-54
2022/04/26 05:06:33;;;;;;;2.63;1.00;;;20.50;52.90;;;;;;4994367;28;20097;-54
2022/04/26 05:08:59;;;;;;;3.40;1.80;;;20.50;52.90;;;;;;4994881;28;20073;-54
2022/04/26 05:11:24;;;;;;;3.63;1.38;;;20.50;52.90;;;;;;4995120;28;20038;-54
2022/04/26 05:13:50;;;;;;;2.83;1.50;;;20.50;52.80;;;;;;4993731;28;20073;-54
2022/04/26 05:16:15;;;;;;;2.45;1.17;;;20.50;52.70;;;;;;4994658;28;20085;-54
2022/04/26 05:18:41;;;;;;;2.83;1.33;;;20.50;52.80;;;;;;4994714;28;20046;-54
2022/04/26 05:21:08;;;;;;;3.10;1.30;;;20.50;52.80;;;;;;4993937;28;20038;-54
2022/04/26 05:26:18;;;;;;;3.25;1.33;;;20.50;52.90;;;;;;4994622;28;20054;-54
2022/04/26 05:28:44;;;;;;;2.90;1.33;;;20.50;53.00;;;;;;4993664;28;20132;-54
2022/04/26 05:31:10;;;;;;;1.63;1.10;;;20.50;52.90;;;;;;4994690;28;20088;-54
2022/04/26 05:33:35;;;;;;;2.72;1.27;;;20.50;53.00;;;;;;4994264;28;20096;-54
2022/04/26 05:36:01;;;;;;;3.30;1.20;;;20.60;53.00;;;;;;4993818;28;20049;-54
2022/04/26 05:38:27;;;;;;;2.92;1.30;;;20.60;53.00;;;;;;4994602;28;20038;-54
2022/04/26 05:40:53;;;;;;;3.55;1.25;;;20.50;52.90;;;;;;4994284;28;20077;-54
2022/04/26 05:43:18;;;;;;;2.63;1.40;;;20.60;52.90;;;;;;4993792;28;20053;-55
2022/04/26 05:45:44;;;;;;;4.22;1.33;;;20.60;52.90;;;;;;4994058;28;20038;-55
2022/04/26 05:48:11;;;;;;;2.95;1.40;;;20.60;52.90;;;;;;4994320;28;20038;-54
2022/04/26 05:50:37;;;;;;;2.90;1.25;;;20.60;52.90;;;;;;4993675;28;20061;-54
2022/04/26 05:53:02;;;;;;;3.33;1.30;;;20.60;52.90;;;;;;4994119;28;20120;-54
2022/04/26 05:55:28;;;;;;;2.40;1.45;;;20.60;52.90;;;;;;4994072;28;20490;-54
2022/04/26 05:57:54;;;;;;;2.25;1.35;;;20.60;52.90;;;;;;4992865;28;20077;-54
2022/04/26 06:00:19;;;;;;;3.22;1.25;;;20.60;53.00;;;;;;4994261;28;20054;-54
2022/04/26 06:02:45;;;;;;;1.90;1.10;;;20.60;52.90;;;;;;4992572;28;20046;-54
2022/04/26 06:05:11;;;;;;;3.35;1.30;;;20.70;52.90;;;;;;4994104;28;20046;-54
2022/04/26 06:07:36;;;;;;;4.28;1.65;;;20.60;52.70;;;;;;4993907;28;20034;-54
2022/04/26 06:10:03;;;;;;;2.75;1.40;;;20.70;52.80;;;;;;4992539;28;20168;-54
2022/04/26 06:12:28;;;;;;;2.47;1.23;;;20.70;52.70;;;;;;4993953;28;20038;-55
2022/04/26 06:14:57;;;;;;;3.35;1.30;;;20.70;52.60;;;;;;4993490;28;20085;-55
2022/04/26 06:17:23;;;;;;;2.95;1.45;;;20.70;52.60;;;;;;4993051;28;20069;-55
2022/04/26 06:19:49;;;;;;;6.20;1.50;;;20.70;52.70;;;;;;4993477;28;20342;-54
2022/04/26 06:22:15;;;;;;;4.10;1.40;;;20.80;52.80;;;;;;4993901;28;20046;-54
2022/04/26 06:24:40;;;;;;;3.42;1.38;;;20.80;52.80;;;;;;4992917;28;20073;-54
2022/04/26 06:27:06;;;;;;;4.22;1.50;;;20.80;52.80;;;;;;4993742;28;20061;-54
2022/04/26 06:29:32;;;;;;;3.67;1.35;;;20.80;52.90;;;;;;4993606;28;20514;-55
2022/04/26 06:31:57;;;;;;;3.53;1.42;;;20.80;52.90;;;;;;4992499;28;20061;-55
2022/04/26 06:34:23;;;;;;;4.43;1.40;;;20.80;52.90;;;;;;4993612;28;20050;-54
2022/04/26 06:36:48;;;;;;;3.42;1.38;;;20.80;52.90;;;;;;4993369;28;20056;-55
2022/04/26 06:39:14;;;;;;;4.03;1.30;;;20.80;52.90;;;;;;4989531;28;20120;-54
2022/04/26 06:41:40;;;;;;;2.00;1.20;;;20.80;53.20;;;;;;4993178;28;20050;-55
2022/04/26 06:44:05;;;;;;;4.82;1.45;;;20.90;53.40;;;;;;4993474;28;20101;-54
2022/04/26 06:46:31;;;;;;;4.32;1.90;;;20.90;53.60;;;;;;4992659;28;20038;-54
2022/04/26 06:49:00;;;;;;;3.42;1.20;;;20.90;53.70;;;;;;4992560;28;20050;-54
2022/04/26 06:51:25;;;;;;;5.55;1.40;;;20.90;53.80;;;;;;4993503;28;20092;-55
2022/04/26 06:53:51;;;;;;;4.18;1.40;;;20.90;54.00;;;;;;4992284;28;20046;-54
2022/04/26 06:56:17;;;;;;;2.25;1.20;;;20.90;54.00;;;;;;4992856;28;20042;-55
2022/04/26 06:58:43;;;;;;;5.68;1.27;;;20.90;54.00;;;;;;4993083;28;20049;-54
2022/04/26 07:01:08;;;;;;;3.45;1.20;;;21.00;54.10;;;;;;4992322;28;20044;-54
2022/04/26 07:03:34;;;;;;;5.07;1.40;;;21.00;54.10;;;;;;4992821;28;20046;-54
2022/04/26 07:05:59;;;;;;;4.63;1.45;;;21.00;54.10;;;;;;4992582;28;20042;-54
2022/04/26 07:08:25;;;;;;;2.85;1.42;;;21.00;54.10;;;;;;4992652;28;20073;-54
2022/04/26 07:10:50;;;;;;;3.67;1.60;;;21.00;53.90;;;;;;4992713;28;20077;-54
2022/04/26 07:13:18;;;;;;;4.30;1.10;;;21.00;53.90;;;;;;4992642;28;20437;-54
2022/04/26 07:15:44;;;;;;;7.00;1.40;;;21.00;53.90;;;;;;4996817;28;20082;-57
2022/04/26 07:18:12;;;;;;;5.53;1.35;;;21.00;53.80;;;;;;4987726;28;20093;-55
2022/04/26 07:20:40;;;;;;;5.88;1.58;;;21.00;53.80;;;;;;4976926;28;20074;-55
2022/04/26 07:23:07;;;;;;;5.57;1.23;;;21.00;53.80;;;;;;4977715;28;20058;-55
2022/04/26 07:25:33;;;;;;;3.95;1.42;;;21.10;53.80;;;;;;4977698;28;20043;-55
2022/04/26 07:27:58;;;;;;;5.72;1.30;;;21.10;53.80;;;;;;4976652;28;20065;-55
2022/04/26 07:30:30;;;;;;;4.10;1.40;;;21.10;53.80;;;;;;4977584;28;20053;-55
2022/04/26 07:35:40;;;;;;;7.68;1.83;;;21.10;53.80;;;;;;4976434;28;20074;-55
2022/04/26 07:38:06;;;;;;;4.57;1.42;;;21.10;53.90;;;;;;4977491;28;20089;-55
2022/04/26 07:40:32;;;;;;;6.18;1.50;;;21.10;53.80;;;;;;4977448;28;20043;-56
2022/04/26 07:42:57;;;;;;;3.58;1.20;;;21.10;53.60;;;;;;4976192;28;20043;-55
2022/04/26 07:45:24;;;;;;;4.75;1.65;;;21.20;53.60;;;;;;4977371;28;20039;-54
2022/04/26 07:47:49;;;;;;;3.65;1.15;;;21.10;53.60;;;;;;4992791;28;20608;-54
2022/04/26 07:50:15;;;;;;;6.30;1.73;;;21.10;53.80;;;;;;4995303;28;20126;-54
2022/04/26 07:52:41;;;;;;;4.40;1.30;;;21.20;54.00;;;;;;4995577;28;20087;-55
2022/04/26 07:55:07;;;;;;;4.32;1.20;;;21.20;54.20;;;;;;4996678;28;20093;-55
2022/04/26 07:57:33;;;;;;;5.35;1.40;;;21.20;54.20;;;;;;4995587;28;20053;-56
2022/04/26 07:59:58;;;;;;;4.20;1.40;;;21.30;54.20;;;;;;4996180;28;20050;-55
2022/04/26 08:02:24;;;;;;;3.90;1.20;;;21.30;54.30;;;;;;4995505;28;20046;-53
2022/04/26 08:04:50;;;;;;;4.93;1.50;;;21.30;54.30;;;;;;4995542;28;20185;-53
2022/04/26 08:07:16;;;;;;;5.22;1.40;;;21.40;54.40;;;;;;4995950;28;20667;-53
2022/04/26 08:09:43;;;;;;;4.18;1.50;;;21.40;54.30;;;;;;4995163;28;20129;-56
2022/04/26 08:12:08;;;;;;;7.78;1.50;;;21.40;54.10;;;;;;4996074;28;20406;-55
2022/04/26 08:14:34;;;;;;;5.82;1.50;;;21.40;54.00;;;;;;4995933;28;20493;-55
2022/04/26 08:17:00;;;;;;;5.85;1.42;;;21.50;53.90;;;;;;4993825;28;20043;-55
2022/04/26 08:19:25;;;;;;;4.28;1.55;;;21.50;53.90;;;;;;4995598;28;20038;-55
2022/04/26 08:21:51;;;;;;;5.82;1.50;;;21.40;54.50;;;;;;4995496;28;20109;-55
2022/04/26 08:29:46;;;;;;;3.15;1.30;;;21.50;53.80;;;;;;4995606;28;20403;-55
2022/04/26 08:32:13;;;;;;;2.95;1.30;;;21.50;53.80;;;;;;4993795;28;20568;-55
2022/04/26 08:34:39;;;;;;;3.75;1.40;;;21.50;53.80;;;;;;4994222;28;20142;-55
2022/04/26 08:37:05;;;;;;;3.95;1.20;;;21.50;53.80;;;;;;4995702;28;20384;-55
2022/04/26 08:39:30;;;;;;;6.18;1.30;;;21.60;53.80;;;;;;4995143;28;20513;-55
2022/04/26 08:41:57;;;;;;;4.13;1.48;;;21.50;53.70;;;;;;4995580;28;20441;-55
2022/04/26 08:44:25;;;;;;;4.53;1.50;;;21.50;53.80;;;;;;4995637;28;20042;-55
2022/04/26 08:52:19;;;;;;;3.92;1.52;;;21.60;53.80;;;;;;4994030;28;20082;-55
2022/04/26 08:54:44;;;;;;;2.13;1.13;;;21.60;53.80;;;;;;4995176;28;20077;-55
2022/04/26 08:57:12;;;;;;;4.60;1.30;;;21.60;53.70;;;;;;4995572;28;20054;-55
2022/04/26 08:59:48;;;;;;;2.42;1.20;;;21.60;53.70;;;;;;4994879;28;20047;-55
2022/04/26 09:02:20;;;;;;;4.10;1.52;;;21.60;53.70;;;;;;4995323;28;20054;-55
2022/04/26 09:04:49;;;;;;;4.30;1.38;;;21.60;53.70;;;;;;4994769;28;20581;-55
2022/04/26 09:07:31;;;;;;;3.97;1.48;;;21.60;53.70;;;;;;4994431;28;20047;-56
2022/04/26 09:10:12;;;;;;;4.65;1.83;;;21.60;53.70;;;;;;4994900;28;20100;-55
2022/04/26 09:13:19;;;;;;;6.35;1.70;;;21.70;53.80;;;;;;4994330;28;20513;-55
2022/04/26 09:15:54;;;;;;;3.50;1.33;;;21.60;53.70;;;;;;4953796;29;20486;-55
2022/04/26 09:18:29;;;;;;;4.53;1.42;;;21.70;54.50;;;;;;4954003;29;20047;-55
2022/04/26 09:20:56;;;;;;;2.60;1.15;;;21.70;53.70;;;;;;4978011;28;20470;-54
2022/04/26 09:23:26;;;;;;;3.33;1.23;;;21.70;53.70;;;;;;4995124;28;20042;-54
2022/04/26 09:25:58;;;;;;;3.45;1.15;;;21.70;53.70;;;;;;4993503;28;20500;-54
2022/04/26 09:28:26;;;;;;;3.10;1.20;;;21.70;53.70;;;;;;4993805;28;20120;-54
2022/04/26 09:30:52;;;;;;;2.72;1.33;;;21.70;53.70;;;;;;4994720;28;20046;-55
2022/04/26 09:33:34;;;;;;;2.90;1.10;;;21.70;53.70;;;;;;4994399;28;20098;-55
2022/04/26 09:36:06;;;;;;;4.55;1.27;;;21.70;53.70;;;;;;4993683;28;20049;-55
2022/04/26 09:38:33;;;;;;;3.83;1.23;;;21.70;53.70;;;;;;4994185;28;20042;-55
2022/04/26 09:41:01;;;;;;;3.38;1.20;;;21.70;53.70;;;;;;4993418;28;20494;-55
2022/04/26 09:43:26;;;;;;;2.60;1.03;;;21.70;53.60;;;;;;4994728;28;20494;-55
2022/04/26 09:45:53;;;;;;;3.80;1.30;;;21.70;53.70;;;;;;4994327;28;20042;-55
2022/04/26 09:48:32;;;;;;;3.80;1.13;;;21.70;53.70;;;;;;4993609;28;20096;-55
2022/04/26 09:50:58;;;;;;;3.47;1.52;;;21.70;53.70;;;;;;4994158;28;20039;-55
2022/04/26 09:53:25;;;;;;;2.88;1.20;;;21.70;53.60;;;;;;4994143;28;20569;-55
2022/04/26 09:55:51;;;;;;;2.83;1.30;;;21.70;53.70;;;;;;4993508;28;20057;-55
2022/04/26 09:58:18;;;;;;;4.78;1.30;;;21.70;53.60;;;;;;4993043;28;20494;-55
2022/04/26 10:00:44;;;;;;;3.22;1.17;;;21.70;53.70;;;;;;4994127;28;20548;-55
2022/04/26 10:03:11;;;;;;;4.70;1.20;;;21.70;53.70;;;;;;4993418;28;20053;-55
2022/04/26 10:05:36;;;;;;;3.22;1.30;;;21.70;53.70;;;;;;4994074;28;20063;-56
2022/04/26 10:08:02;;;;;;;4.85;1.20;;;21.60;53.60;;;;;;4992422;28;20038;-55
2022/04/26 10:10:28;;;;;;;2.50;1.17;;;21.70;53.60;;;;;;4993320;28;20046;-55
2022/04/26 10:15:39;;;;;;;4.78;1.10;;;21.70;53.60;;;;;;4992752;28;20430;-56
2022/04/26 10:18:44;;;;;;;2.38;1.20;;;21.60;53.60;;;;;;4992163;28;20515;-55
2022/04/26 10:21:10;;;;;;;3.10;1.10;;;21.60;53.50;;;;;;4952836;29;20411;-55
2022/04/26 10:23:56;;;;;;;5.05;2.05;;;21.60;53.60;;;;;;4952012;29;20534;-55
2022/04/26 10:26:25;;;;;;;2.80;1.20;;;21.60;53.40;;;;;;4967780;28;20494;-55
2022/04/26 10:28:57;;;;;;;3.63;1.48;;;21.60;53.60;;;;;;4989335;28;20046;-55
2022/04/26 10:31:40;;;;;;;5.65;1.80;;;21.60;52.90;;;;;;4976108;28;20054;-55
2022/04/26 10:34:18;;;;;;;4.13;1.20;;;21.60;52.70;;;;;;4978908;28;20050;-55
2022/04/26 10:36:50;;;;;;;3.10;1.57;;;21.60;52.90;;;;;;4993196;28;20077;-55
2022/04/26 10:39:22;;;;;;;4.28;1.30;;;21.60;53.00;;;;;;4992793;28;20058;-55
2022/04/26 10:41:48;;;;;;;4.20;1.45;;;21.60;53.20;;;;;;4993212;28;20497;-55
2022/04/26 10:44:16;;;;;;;3.97;1.33;;;21.60;53.30;;;;;;4992930;28;20069;-55
2022/04/26 10:46:42;;;;;;;5.05;1.20;;;21.60;53.30;;;;;;4992869;28;20455;-55
2022/04/26 10:49:24;;;;;;;4.00;1.38;;;21.70;53.50;;;;;;4992834;28;20121;-55
2022/04/26 10:51:55;;;;;;;2.70;1.30;;;21.70;53.70;;;;;;4991541;28;20043;-55
2022/04/26 10:54:46;;;;;;;4.30;1.52;;;21.70;53.70;;;;;;4993400;28;20046;-56
2022/04/26 10:57:16;;;;;;;3.28;1.20;;;21.70;53.80;;;;;;4993026;28;20514;-56
2022/04/26 10:59:42;;;;;;;2.63;1.00;;;21.70;53.90;;;;;;4991454;28;20129;-55
2022/04/26 11:02:12;;;;;;;3.20;1.55;;;21.70;54.00;;;;;;4992453;28;20038;-55
2022/04/26 11:04:38;;;;;;;5.90;1.25;;;21.70;54.00;;;;;;4993023;28;20046;-56
2022/04/26 11:07:30;;;;;;;4.30;1.23;;;21.70;54.10;;;;;;4992111;28;20043;-55
2022/04/26 11:09:57;;;;;;;5.30;1.40;;;21.70;54.10;;;;;;4989818;28;20082;-56
2022/04/26 11:12:27;;;;;;;2.95;1.13;;;21.70;54.10;;;;;;4992086;28;20402;-56
2022/04/26 11:14:57;;;;;;;7.05;1.42;;;21.80;54.40;;;;;;4991918;28;20126;-55
2022/04/26 11:17:23;;;;;;;5.50;1.20;;;21.80;54.50;;;;;;4992546;28;20034;-55
2022/04/26 11:19:55;;;;;;;3.67;1.17;;;21.80;54.50;;;;;;4991030;28;20054;-55
2022/04/26 11:22:22;;;;;;;5.40;1.30;;;21.80;54.50;;;;;;4973551;28;20122;-55
2022/04/26 11:30:33;;;;;;;4.20;1.23;;;21.90;54.60;;;;;;4973601;28;20051;-55
2022/04/26 11:33:00;;;;;;;4.07;1.33;;;21.90;54.60;;;;;;4972946;28;20058;-55
2022/04/26 11:35:25;;;;;;;5.18;1.17;;;21.90;54.60;;;;;;4972538;28;20046;-55
2022/04/26 11:37:55;;;;;;;2.90;1.10;;;21.90;54.60;;;;;;4973346;28;20402;-55
2022/04/26 11:40:28;;;;;;;3.00;1.42;;;21.90;54.60;;;;;;4972363;28;20414;-55
2022/04/26 11:42:57;;;;;;;4.75;1.17;;;21.80;54.50;;;;;;4972789;28;20406;-55
2022/04/26 11:45:23;;;;;;;2.97;1.30;;;21.80;54.50;;;;;;4971958;28;20399;-55
2022/04/26 11:47:49;;;;;;;4.00;1.13;;;21.80;54.60;;;;;;4972332;28;20043;-55
2022/04/26 11:50:19;;;;;;;2.58;1.20;;;21.90;54.70;;;;;;4977110;28;20177;-55
2022/04/26 11:52:45;;;;;;;3.10;1.73;;;21.90;54.80;;;;;;4992510;28;20046;-55
2022/04/26 11:55:26;;;;;;;2.88;1.15;;;21.90;54.70;;;;;;4991732;28;20041;-55
2022/04/26 11:57:53;;;;;;;3.92;1.10;;;21.80;54.60;;;;;;4986063;28;20038;-56
2022/04/26 12:00:21;;;;;;;3.80;1.35;;;21.80;54.70;;;;;;4984848;28;20050;-56
2022/04/26 12:02:47;;;;;;;3.35;1.17;;;21.90;54.70;;;;;;4985871;28;20439;-56
2022/04/26 12:05:14;;;;;;;2.00;1.05;;;21.90;54.70;;;;;;4986360;28;20090;-55
2022/04/26 12:07:40;;;;;;;2.58;1.20;;;21.90;54.80;;;;;;4983639;28;20077;-56
2022/04/26 12:10:26;;;;;;;3.33;1.40;;;21.80;54.70;;;;;;4984948;28;20121;-56
2022/04/26 12:12:56;;;;;;;3.00;1.10;;;21.90;54.80;;;;;;4986450;28;20053;-56
2022/04/26 12:15:28;;;;;;;4.47;1.08;;;21.90;54.80;;;;;;4988922;28;20043;-56
2022/04/26 12:18:07;;;;;;;4.00;1.00;;;21.90;54.80;;;;;;4985829;28;20035;-56
2022/04/26 12:20:35;;;;;;;3.13;1.00;;;21.90;54.80;;;;;;4986434;28;20398;-55
2022/04/26 12:23:02;;;;;;;3.00;1.10;;;21.90;54.90;;;;;;4968535;28;20104;-55
2022/04/26 12:25:27;;;;;;;3.28;1.17;;;21.90;54.80;;;;;;4981991;28;20139;-55
2022/04/26 12:28:03;;;;;;;2.65;1.23;;;21.90;54.80;;;;;;4990612;28;20034;-55
2022/04/26 12:30:30;;;;;;;3.00;1.40;;;22.00;54.90;;;;;;4987631;28;20050;-54
2022/04/26 12:32:55;;;;;;;4.03;1.33;;;22.00;54.80;;;;;;4993919;28;20069;-55
2022/04/26 12:35:21;;;;;;;3.42;1.20;;;22.00;54.60;;;;;;4994020;28;20410;-54
2022/04/26 12:37:47;;;;;;;2.58;1.17;;;21.90;54.60;;;;;;4988907;28;20034;-55
2022/04/26 12:40:15;;;;;;;4.45;1.38;;;22.00;54.70;;;;;;4987408;28;20104;-55
2022/04/26 12:42:42;;;;;;;2.50;1.17;;;22.00;54.60;;;;;;4984803;28;20035;-55
2022/04/26 12:45:11;;;;;;;3.53;1.15;;;22.00;54.60;;;;;;4986799;28;20035;-55
2022/04/26 12:50:35;;;;;;;3.17;1.00;;;22.00;54.60;;;;;;4985974;28;20046;-55
2022/04/26 12:53:00;;;;;;;3.67;1.30;;;21.90;54.60;;;;;;4994474;28;20054;-55
2022/04/26 12:55:34;;;;;;;2.13;1.10;;;22.00;54.60;;;;;;4995543;28;20046;-55
2022/04/26 12:58:10;;;;;;;3.22;1.30;;;21.90;54.60;;;;;;4994219;28;20072;-55
2022/04/26 13:00:39;;;;;;;5.43;1.30;;;21.90;54.60;;;;;;4975817;28;20487;-55
2022/04/26 13:03:06;;;;;;;3.60;1.10;;;21.90;54.60;;;;;;4976034;28;20097;-55
2022/04/26 13:05:41;;;;;;;4.18;1.52;;;21.90;54.60;;;;;;4975036;28;20066;-54
2022/04/26 13:08:07;;;;;;;3.15;1.20;;;22.00;54.60;;;;;;4975609;28;20380;-55
2022/04/26 13:10:33;;;;;;;4.00;1.10;;;21.90;54.50;;;;;;4975609;28;20043;-55
2022/04/26 13:12:58;;;;;;;4.82;1.35;;;22.00;54.60;;;;;;4979568;28;20615;-55
2022/04/26 13:15:24;;;;;;;3.05;1.23;;;22.00;54.50;;;;;;4985710;28;20336;-55
2022/04/26 13:17:50;;;;;;;2.78;1.23;;;22.10;54.50;;;;;;4988851;28;20505;-55
2022/04/26 13:20:15;;;;;;;2.92;1.20;;;22.10;54.30;;;;;;4985301;28;20121;-55
2022/04/26 13:22:41;;;;;;;2.72;1.05;;;22.10;54.30;;;;;;4983778;28;20049;-55
2022/04/26 13:25:07;;;;;;;4.20;1.30;;;22.20;54.30;;;;;;4982613;28;20043;-56
2022/04/26 13:27:33;;;;;;;4.40;1.63;;;22.20;54.30;;;;;;4982776;28;20441;-55
2022/04/26 13:29:59;;;;;;;2.63;1.23;;;22.20;54.30;;;;;;4993195;28;20050;-55
2022/04/26 13:32:25;;;;;;;3.25;1.17;;;22.20;54.50;;;;;;4994564;28;20082;-55
2022/04/26 13:34:52;;;;;;;3.65;1.45;;;22.20;54.50;;;;;;4993716;28;20485;-55
2022/04/26 13:37:19;;;;;;;3.63;1.08;;;22.20;54.40;;;;;;4994728;28;20057;-55
2022/04/26 13:39:45;;;;;;;2.75;1.30;;;22.20;54.30;;;;;;4994509;28;20050;-55
2022/04/26 13:42:12;;;;;;;2.55;1.33;;;22.20;54.30;;;;;;4993768;28;20093;-55
2022/04/26 13:44:37;;;;;;;4.07;1.30;;;22.20;54.20;;;;;;4994321;28;20050;-55
2022/04/26 13:47:04;;;;;;;3.78;1.40;;;22.30;54.00;;;;;;4993241;28;20069;-54
2022/04/26 13:49:31;;;;;;;3.30;1.13;;;22.30;53.90;;;;;;4988387;28;20102;-54
2022/04/26 13:51:57;;;;;;;3.58;1.20;;;22.40;54.00;;;;;;4985801;28;20042;-54
2022/04/26 13:54:25;;;;;;;5.00;1.10;;;22.40;54.10;;;;;;4983568;28;20391;-55
2022/04/26 13:56:52;;;;;;;5.00;1.25;;;22.40;54.00;;;;;;4984473;28;20473;-55
2022/04/26 13:59:17;;;;;;;4.07;1.05;;;22.40;54.00;;;;;;4986015;28;20081;-55
2022/04/26 14:01:43;;;;;;;5.18;1.50;;;22.40;53.80;;;;;;4983479;28;20045;-55
2022/04/26 14:04:08;;;;;;;4.50;1.20;;;22.50;53.60;;;;;;4983381;28;20044;-55
2022/04/26 14:06:33;;;;;;;2.60;1.08;;;22.60;53.40;;;;;;4985009;28;20052;-55
2022/04/26 14:08:59;;;;;;;4.38;1.20;;;22.60;53.00;;;;;;4982040;28;20438;-55
2022/04/26 14:11:25;;;;;;;3.75;1.27;;;22.60;52.70;;;;;;4983797;28;20050;-55
2022/04/26 14:22:03;;;;;;;2.05;1.55;;;22.80;52.20;;;;;;4984198;28;20069;-55
2022/04/26 14:24:29;;;;;;;3.75;1.30;;;22.90;52.00;;;;;;4983377;28;20387;-57
2022/04/26 14:26:54;;;;;;;3.25;1.17;;;23.00;51.80;;;;;;4993522;28;20413;-55
2022/04/26 14:29:20;;;;;;;3.53;1.35;;;23.00;51.60;;;;;;4992973;28;20229;-56
2022/04/26 14:31:45;;;;;;;5.53;1.50;;;23.10;51.40;;;;;;4984008;28;20088;-55
2022/04/26 14:34:11;;;;;;;3.05;1.27;;;23.20;51.30;;;;;;4982973;28;20046;-55
2022/04/26 14:36:37;;;;;;;3.65;1.13;;;23.20;51.00;;;;;;4982774;28;20045;-55
2022/04/26 14:39:03;;;;;;;3.08;1.30;;;23.30;50.90;;;;;;4984332;28;20038;-55
2022/04/26 14:41:28;;;;;;;3.50;1.40;;;23.40;50.70;;;;;;4978776;28;20549;-57
2022/04/26 14:43:54;;;;;;;4.28;1.50;;;23.40;50.70;;;;;;4973661;28;20050;-56
2022/04/26 14:46:20;;;;;;;5.50;1.35;;;23.40;50.80;;;;;;4980389;28;20088;-56
2022/04/26 14:48:45;;;;;;;6.82;1.40;;;23.50;50.70;;;;;;4983806;28;20038;-55
2022/04/26 14:51:11;;;;;;;2.67;1.05;;;23.50;50.70;;;;;;4981508;28;20483;-55
2022/04/26 14:53:38;;;;;;;5.85;1.33;;;23.60;50.30;;;;;;4981806;28;20049;-55
2022/04/26 14:56:04;;;;;;;4.70;1.60;;;23.60;50.30;;;;;;4979367;28;20042;-55
2022/04/26 14:58:30;;;;;;;5.43;1.55;;;23.70;49.20;;;;;;4984969;28;20077;-55
2022/04/26 15:00:56;;;;;;;6.80;1.80;;;23.70;48.70;;;;;;4989908;28;20077;-55
2022/04/26 15:03:21;;;;;;;4.75;2.15;;;23.80;48.20;;;;;;4991889;28;20093;-54
2022/04/26 15:05:47;;;;;;;6.10;1.67;;;23.80;47.90;;;;;;4991028;28;20042;-55
2022/04/26 15:10:57;;;;;;;2.30;1.40;;;23.90;47.50;;;;;;4991947;28;20042;-55
2022/04/26 15:18:51;;;;;;;5.18;1.50;;;24.10;47.00;;;;;;4982458;28;20050;-55
2022/04/26 15:21:18;;;;;;;3.88;1.50;;;24.10;46.70;;;;;;4980731;28;20049;-55
2022/04/26 15:23:44;;;;;;;4.70;1.50;;;24.20;46.60;;;;;;4976162;28;20510;-55
2022/04/26 15:26:11;;;;;;;6.32;1.80;;;24.20;46.50;;;;;;4972403;28;20309;-55
2022/04/26 15:28:37;;;;;;;3.50;1.30;;;24.30;46.10;;;;;;4973307;28;20080;-55
2022/04/26 15:31:03;;;;;;;4.93;1.50;;;24.40;46.30;;;;;;4972917;28;20062;-55
2022/04/26 15:33:28;;;;;;;3.95;1.33;;;24.40;46.40;;;;;;4978516;28;20450;-56
2022/04/26 15:35:56;;;;;;;2.83;1.33;;;24.50;46.40;;;;;;4994570;28;20093;-55
2022/04/26 15:38:21;;;;;;;3.58;1.55;;;24.50;46.40;;;;;;4996315;28;20101;-55
2022/04/26 15:40:47;;;;;;;4.43;1.33;;;24.50;46.70;;;;;;4995761;28;20050;-55
2022/04/26 15:43:13;;;;;;;3.85;1.20;;;24.50;46.60;;;;;;4996187;28;20121;-55
2022/04/26 15:45:39;;;;;;;3.38;1.40;;;24.60;46.70;;;;;;4996653;28;20046;-55
2022/04/26 15:48:05;;;;;;;4.40;1.40;;;24.60;46.60;;;;;;4996079;28;20054;-56
2022/04/26 15:50:30;;;;;;;7.45;1.40;;;24.70;46.60;;;;;;4991965;28;20038;-55
2022/04/26 15:52:56;;;;;;;7.50;1.80;;;24.70;46.70;;;;;;4986815;28;20151;-55
2022/04/26 15:55:22;;;;;;;2.75;1.40;;;24.70;46.70;;;;;;4984284;28;20031;-55
2022/04/26 15:57:49;;;;;;;5.68;1.52;;;24.80;46.70;;;;;;4988918;28;20047;-55
2022/04/26 16:00:16;;;;;;;6.50;1.38;;;24.80;46.80;;;;;;4985324;28;20051;-55
2022/04/26 16:02:43;;;;;;;3.65;1.40;;;24.80;46.80;;;;;;4985959;28;20042;-55
2022/04/26 16:05:09;;;;;;;4.00;1.30;;;24.80;47.00;;;;;;4986579;28;20050;-55
2022/04/26 16:07:34;;;;;;;3.70;1.13;;;24.80;47.10;;;;;;4984692;28;20041;-55
2022/04/26 16:20:57;;;;;;;2.38;1.15;;;24.60;47.50;;;;;;4987191;28;20047;-55
2022/04/26 16:23:23;;;;;;;2.58;1.10;;;24.60;47.70;;;;;;4985851;28;20129;-55
2022/04/26 16:25:48;;;;;;;7.07;1.40;;;24.60;47.80;;;;;;4986006;28;20129;-55
2022/04/26 16:28:14;;;;;;;3.58;1.30;;;24.60;47.80;;;;;;4984877;28;20137;-56
2022/04/26 16:30:41;;;;;;;3.05;1.13;;;24.60;47.90;;;;;;4986652;28;20046;-55
2022/04/26 16:33:08;;;;;;;6.15;1.80;;;24.60;47.90;;;;;;4984612;28;20077;-55
2022/04/26 16:35:34;;;;;;;2.92;1.00;;;24.60;48.00;;;;;;4993035;28;20050;-56
2022/04/26 16:38:01;;;;;;;2.75;1.00;;;24.50;48.20;;;;;;4991327;28;20049;-55
2022/04/26 16:40:28;;;;;;;3.08;1.30;;;24.50;48.20;;;;;;4993779;28;20046;-56
2022/04/26 16:42:53;;;;;;;3.10;1.30;;;24.50;48.50;;;;;;4992066;28;20054;-55
2022/04/26 16:45:19;;;;;;;3.38;1.10;;;24.40;48.60;;;;;;4992197;28;20147;-55
2022/04/26 16:47:45;;;;;;;5.07;1.20;;;24.40;48.80;;;;;;4991688;28;20394;-57
2022/04/26 16:50:12;;;;;;;5.47;1.50;;;24.30;48.80;;;;;;4990760;28;20054;-55
2022/04/26 16:52:38;;;;;;;4.28;1.40;;;24.30;48.80;;;;;;4992838;28;20065;-55
2022/04/26 16:55:04;;;;;;;5.60;1.20;;;24.30;49.00;;;;;;4993438;28;20058;-55
2022/04/26 16:57:31;;;;;;;5.68;1.10;;;24.20;49.00;;;;;;4992088;28;20092;-55
2022/04/26 16:59:57;;;;;;;3.10;1.40;;;24.10;49.00;;;;;;4993488;28;20398;-56
2022/04/26 17:02:25;;;;;;;4.43;1.20;;;24.00;49.20;;;;;;4991568;28;20577;-55
2022/04/26 17:04:51;;;;;;;4.45;1.13;;;24.00;49.30;;;;;;4992570;28;20113;-55
2022/04/26 17:07:17;;;;;;;3.45;1.30;;;23.90;49.40;;;;;;4991839;28;20130;-55
2022/04/26 17:09:42;;;;;;;3.20;1.52;;;23.90;49.40;;;;;;4992767;28;20133;-55
2022/04/26 17:12:09;;;;;;;3.50;1.85;;;23.80;48.80;;;;;;4992276;28;20038;-56
2022/04/26 17:14:35;;;;;;;3.30;1.10;;;23.70;49.10;;;;;;4992001;28;20061;-55
2022/04/26 17:17:01;;;;;;;2.70;1.30;;;23.70;48.20;;;;;;4990882;28;20038;-55
2022/04/26 17:19:27;;;;;;;4.05;1.20;;;23.70;48.20;;;;;;4988789;28;20069;-55